createdAt,value
2023-04-15T00:01:10.244Z,4.30
2023-04-15T00:03:39.797Z,4.30
2023-04-15T00:06:07.767Z,4.10
2023-04-15T00:08:35.646Z,4.10
2023-04-15T00:11:05.806Z,4.00
2023-04-15T00:13:34.403Z,4.10
2023-04-15T00:16:02.620Z,4.10
2023-04-15T00:18:31.586Z,4.10
2023-04-15T00:21:00.931Z,4.10
2023-04-15T00:23:29.087Z,4.10
2023-04-15T00:25:56.986Z,4.10
2023-04-15T00:28:24.896Z,4.00
2023-04-15T00:30:52.908Z,4.10
2023-04-15T00:33:20.800Z,4.10
2023-04-15T00:35:48.569Z,4.00
2023-04-15T00:38:17.763Z,4.00
2023-04-15T00:40:45.762Z,4.00
2023-04-15T00:43:13.695Z,3.90
2023-04-15T00:45:41.785Z,3.90
2023-04-15T00:48:10.438Z,3.80
2023-04-15T00:50:38.265Z,3.70
2023-04-15T00:53:06.116Z,3.70
2023-04-15T00:55:36.193Z,3.70
2023-04-15T00:58:04.167Z,3.80
2023-04-15T01:00:32.195Z,3.80
2023-04-15T01:03:00.255Z,3.80
2023-04-15T01:05:28.839Z,3.70
2023-04-15T01:07:56.746Z,3.70
2023-04-15T01:10:24.665Z,3.70
2023-04-15T01:12:53.895Z,3.80
2023-04-15T01:15:21.870Z,3.80
2023-04-15T01:17:50.189Z,3.90
2023-04-15T01:20:18.261Z,3.80
2023-04-15T01:22:46.468Z,3.70
2023-04-15T01:25:19.454Z,3.50
2023-04-15T01:27:48.664Z,3.50
2023-04-15T01:30:17.458Z,3.50
2023-04-15T01:32:45.272Z,3.50
2023-04-15T01:35:13.141Z,3.60
2023-04-15T01:37:41.007Z,3.60
2023-04-15T01:40:09.869Z,3.70
2023-04-15T01:42:38.298Z,3.70
2023-04-15T01:45:08.866Z,3.70
2023-04-15T01:47:36.678Z,3.70
2023-04-15T01:50:04.782Z,3.70
2023-04-15T01:52:32.682Z,3.80
2023-04-15T01:55:00.590Z,3.80
2023-04-15T01:57:28.416Z,3.90
2023-04-15T01:59:56.622Z,3.90
2023-04-15T02:02:26.019Z,3.90
2023-04-15T02:04:53.917Z,3.90
2023-04-15T02:07:21.929Z,3.90
2023-04-15T02:09:49.733Z,3.90
2023-04-15T02:12:17.548Z,3.80
2023-04-15T02:14:45.365Z,3.70
2023-04-15T02:17:13.554Z,3.70
2023-04-15T02:19:43.013Z,3.60
2023-04-15T02:22:14.488Z,3.60
2023-04-15T02:24:42.290Z,3.50
2023-04-15T02:27:10.189Z,3.40
2023-04-15T02:29:38.016Z,3.30
2023-04-15T02:32:06.399Z,3.20
2023-04-15T02:34:34.624Z,3.20
2023-04-15T02:37:04.536Z,3.10
2023-04-15T02:39:32.675Z,3.00
2023-04-15T02:42:01.030Z,2.90
2023-04-15T02:44:28.908Z,2.90
2023-04-15T02:46:56.727Z,2.80
2023-04-15T02:49:24.964Z,2.80
2023-04-15T02:51:53.070Z,2.80
2023-04-15T02:54:23.808Z,2.80
2023-04-15T02:56:52.497Z,2.80
2023-04-15T02:59:20.391Z,2.70
2023-04-15T03:01:48.750Z,2.60
2023-04-15T03:04:16.849Z,2.60
2023-04-15T03:06:44.875Z,2.60
2023-04-15T03:09:12.758Z,2.60
2023-04-15T03:11:42.042Z,2.60
2023-04-15T03:14:09.922Z,2.50
2023-04-15T03:16:37.747Z,2.50
2023-04-15T03:19:05.643Z,2.40
2023-04-15T03:21:33.460Z,2.40
2023-04-15T03:24:01.534Z,2.40
2023-04-15T03:26:30.518Z,2.40
2023-04-15T03:28:59.910Z,2.50
2023-04-15T03:31:28.051Z,2.50
2023-04-15T03:33:55.964Z,2.50
2023-04-15T03:36:23.837Z,2.50
2023-04-15T03:38:51.644Z,2.40
2023-04-15T03:41:19.473Z,2.20
2023-04-15T03:43:47.412Z,2.10
2023-04-15T03:46:16.648Z,2.10
2023-04-15T03:48:44.517Z,2.00
2023-04-15T03:51:12.392Z,2.00
2023-04-15T03:53:40.431Z,2.00
2023-04-15T03:56:08.628Z,2.10
2023-04-15T03:58:36.562Z,2.20
2023-04-15T04:01:04.708Z,2.20
2023-04-15T04:03:34.260Z,2.30
2023-04-15T04:06:02.456Z,2.30
2023-04-15T04:08:30.408Z,2.20
2023-04-15T04:10:58.246Z,2.10
2023-04-15T04:13:26.120Z,2.20
2023-04-15T04:15:53.930Z,2.20
2023-04-15T04:18:21.858Z,2.10
2023-04-15T04:20:51.186Z,2.10
2023-04-15T04:23:19.038Z,2.10
2023-04-15T04:25:47.708Z,2.00
2023-04-15T04:28:15.551Z,2.00
2023-04-15T04:30:43.454Z,2.00
2023-04-15T04:33:11.681Z,2.00
2023-04-15T04:35:39.569Z,2.00
2023-04-15T04:38:08.714Z,2.00
2023-04-15T04:40:36.746Z,1.90
2023-04-15T04:43:04.717Z,1.90
2023-04-15T04:45:32.628Z,1.90
2023-04-15T04:48:00.564Z,1.90
2023-04-15T04:50:28.582Z,2.00
2023-04-15T04:52:56.371Z,2.00
2023-04-15T04:55:25.697Z,2.00
2023-04-15T04:57:53.682Z,2.00
2023-04-15T05:00:21.673Z,1.90
2023-04-15T05:02:49.753Z,1.90
2023-04-15T05:05:17.811Z,1.90
2023-04-15T05:07:47.242Z,2.10
2023-04-15T05:10:17.500Z,2.20
2023-04-15T05:12:46.730Z,2.30
2023-04-15T05:15:14.543Z,2.40
2023-04-15T05:17:42.391Z,2.50
2023-04-15T05:20:10.721Z,2.50
2023-04-15T05:22:38.735Z,2.50
2023-04-15T05:25:07.295Z,2.60
2023-04-15T05:27:35.117Z,2.60
2023-04-15T05:30:04.506Z,2.60
2023-04-15T05:32:32.404Z,2.60
2023-04-15T05:35:00.486Z,2.60
2023-04-15T05:37:28.440Z,2.60
2023-04-15T05:39:56.733Z,2.60
2023-04-15T05:42:24.593Z,2.70
2023-04-15T05:44:52.461Z,2.80
2023-04-15T05:47:21.730Z,2.90
2023-04-15T05:49:49.626Z,3.00
2023-04-15T05:52:17.487Z,3.10
2023-04-15T05:54:45.704Z,3.20
2023-04-15T05:57:13.522Z,3.30
2023-04-15T05:59:42.174Z,3.40
2023-04-15T06:02:11.504Z,3.50
2023-04-15T06:04:40.795Z,3.60
2023-04-15T06:07:08.665Z,3.70
2023-04-15T06:09:36.667Z,3.80
2023-04-15T06:12:04.693Z,4.00
2023-04-15T06:14:32.536Z,4.10
2023-04-15T06:17:00.327Z,4.20
2023-04-15T06:19:28.113Z,4.30
2023-04-15T06:21:57.435Z,4.40
2023-04-15T06:24:25.353Z,4.60
2023-04-15T06:26:53.276Z,4.80
2023-04-15T06:29:21.312Z,4.90
2023-04-15T06:31:49.744Z,5.00
2023-04-15T06:34:17.644Z,5.20
2023-04-15T06:36:45.669Z,5.40
2023-04-15T06:39:14.809Z,5.50
2023-04-15T06:41:43.079Z,5.70
2023-04-15T06:44:13.570Z,5.90
2023-04-15T06:46:41.503Z,6.10
2023-04-15T06:49:09.303Z,6.30
2023-04-15T06:51:37.442Z,6.50
2023-04-15T06:54:06.211Z,6.60
2023-04-15T06:56:36.832Z,6.80
2023-04-15T06:59:04.657Z,7.00
2023-04-15T07:01:32.565Z,7.20
2023-04-15T07:04:00.500Z,7.40
2023-04-15T07:06:28.418Z,7.60
2023-04-15T07:08:57.360Z,7.70
2023-04-15T07:11:27.835Z,7.90
2023-04-15T07:13:57.013Z,8.00
2023-04-15T07:16:25.466Z,8.10
2023-04-15T07:18:54.021Z,8.30
2023-04-15T07:21:21.880Z,8.50
2023-04-15T07:23:49.779Z,8.60
2023-04-15T07:26:17.624Z,8.80
2023-04-15T07:28:46.371Z,9.00
2023-04-15T07:31:16.436Z,9.10
2023-04-15T07:33:44.376Z,9.20
2023-04-15T07:36:12.223Z,9.40
2023-04-15T07:38:40.609Z,9.50
2023-04-15T07:41:09.151Z,9.60
2023-04-15T07:43:37.040Z,9.70
2023-04-15T07:46:05.963Z,9.90
2023-04-15T07:48:36.252Z,10.00
2023-04-15T07:51:05.566Z,10.30
2023-04-15T07:53:33.921Z,10.50
2023-04-15T07:56:01.796Z,10.60
2023-04-15T07:58:29.919Z,10.90
2023-04-15T08:00:57.951Z,11.30
2023-04-15T08:03:26.788Z,11.70
2023-04-15T08:05:56.051Z,12.00
2023-04-15T08:08:23.958Z,12.10
2023-04-15T08:10:52.836Z,12.40
2023-04-15T08:13:21.659Z,12.60
2023-04-15T08:16:20.324Z,13.00
2023-04-15T08:18:49.208Z,13.20
2023-04-15T08:21:19.722Z,13.30
2023-04-15T08:23:49.448Z,13.40
2023-04-15T08:26:17.655Z,13.40
2023-04-15T08:28:46.653Z,13.20
2023-04-15T08:31:15.318Z,13.30
2023-04-15T08:33:43.529Z,13.50
2023-04-15T08:36:12.118Z,13.90
2023-04-15T08:38:41.744Z,14.00
2023-04-15T08:41:19.361Z,14.10
2023-04-15T08:43:50.811Z,14.00
2023-04-15T08:46:19.474Z,14.00
2023-04-15T08:48:49.151Z,14.20
2023-04-15T08:51:17.751Z,14.00
2023-04-15T08:53:47.849Z,13.90
2023-04-15T08:56:17.000Z,13.90
2023-04-15T08:58:45.957Z,13.90
2023-04-15T09:01:14.269Z,14.00
2023-04-15T09:03:43.173Z,14.00
2023-04-15T09:06:11.171Z,14.00
2023-04-15T09:08:39.076Z,13.80
2023-04-15T09:11:08.421Z,13.80
2023-04-15T09:13:36.599Z,13.90
2023-04-15T09:16:06.403Z,13.80
2023-04-15T09:18:36.335Z,13.80
2023-04-15T09:21:08.921Z,13.80
2023-04-15T09:23:36.981Z,14.00
2023-04-15T09:26:05.695Z,14.00
2023-04-15T09:28:42.104Z,13.90
2023-04-15T09:31:10.609Z,13.80
2023-04-15T09:33:56.139Z,13.90
2023-04-15T09:36:25.025Z,14.20
2023-04-15T09:38:57.166Z,14.60
2023-04-15T09:41:25.296Z,14.90
2023-04-15T09:43:54.535Z,15.20
2023-04-15T09:46:41.275Z,15.30
2023-04-15T09:49:10.252Z,15.40
2023-04-15T09:51:38.807Z,15.30
2023-04-15T09:54:07.291Z,15.20
2023-04-15T09:56:37.847Z,15.20
2023-04-15T09:59:07.956Z,15.00
2023-04-15T10:01:36.290Z,15.20
2023-04-15T10:04:05.676Z,15.20
2023-04-15T10:06:34.914Z,15.40
2023-04-15T10:09:03.305Z,15.50
2023-04-15T10:11:31.985Z,15.60
2023-04-15T10:14:00.406Z,15.80
2023-04-15T10:16:32.680Z,16.30
2023-04-15T10:19:02.879Z,16.50
2023-04-15T10:21:32.087Z,16.90
2023-04-15T10:24:00.327Z,17.00
2023-04-15T10:26:29.380Z,16.90
2023-04-15T10:28:58.406Z,16.90
2023-04-15T10:31:29.592Z,16.80
2023-04-15T10:33:58.341Z,16.90
2023-04-15T10:36:26.731Z,16.90
2023-04-15T10:38:54.550Z,16.70
2023-04-15T10:41:23.721Z,16.90
2023-04-15T10:43:53.462Z,16.80
2023-04-15T10:46:24.441Z,16.60
2023-04-15T10:48:54.986Z,16.80
2023-04-15T10:51:31.321Z,17.00
2023-04-15T10:54:00.749Z,17.10
2023-04-15T10:56:31.227Z,17.40
2023-04-15T10:59:01.322Z,17.70
2023-04-15T11:01:57.488Z,17.70
2023-04-15T11:04:56.193Z,17.70
2023-04-15T11:07:49.736Z,17.80
2023-04-15T11:10:56.145Z,17.90
2023-04-15T11:13:28.954Z,17.70
2023-04-15T11:16:00.242Z,17.40
2023-04-15T11:18:30.459Z,17.30
2023-04-15T11:21:01.237Z,17.40
2023-04-15T11:23:31.430Z,17.40
2023-04-15T11:26:00.281Z,17.60
2023-04-15T11:28:29.592Z,17.80
2023-04-15T11:30:57.972Z,17.80
2023-04-15T11:33:26.974Z,18.00
2023-04-15T11:35:55.571Z,18.10
2023-04-15T11:38:24.779Z,18.10
2023-04-15T11:40:53.117Z,18.30
2023-04-15T11:43:22.729Z,18.30
2023-04-15T11:45:53.189Z,18.10
2023-04-15T11:48:23.129Z,17.90
2023-04-15T11:50:55.674Z,17.60
2023-04-15T11:53:25.996Z,17.50
2023-04-15T11:55:55.481Z,17.40
2023-04-15T11:58:25.268Z,17.20
2023-04-15T12:00:55.845Z,16.90
2023-04-15T12:03:26.554Z,16.60
2023-04-15T12:06:12.659Z,16.80
2023-04-15T12:09:02.756Z,16.80
2023-04-15T12:11:36.436Z,17.00
2023-04-15T12:14:10.106Z,16.90
2023-04-15T12:16:48.174Z,17.10
2023-04-15T12:19:19.282Z,17.10
2023-04-15T12:21:48.908Z,17.00
2023-04-15T12:24:22.252Z,16.80
2023-04-15T12:26:51.813Z,16.60
2023-04-15T12:29:19.888Z,16.40
2023-04-15T12:31:53.009Z,16.20
2023-04-15T12:34:28.734Z,16.30
2023-04-15T12:36:57.732Z,16.30
2023-04-15T12:39:29.969Z,16.20
2023-04-15T12:41:58.694Z,16.00
2023-04-15T12:44:27.193Z,15.90
2023-04-15T12:46:55.290Z,15.80
2023-04-15T12:49:23.656Z,15.80
2023-04-15T12:51:52.996Z,15.70
2023-04-15T12:54:21.535Z,15.70
2023-04-15T12:56:51.745Z,15.40
2023-04-15T12:59:19.886Z,15.30
2023-04-15T13:01:48.829Z,15.10
2023-04-15T13:04:17.198Z,14.90
2023-04-15T13:06:45.421Z,14.80
2023-04-15T13:09:13.241Z,14.70
2023-04-15T13:11:41.289Z,14.70
2023-04-15T13:14:11.335Z,14.60
2023-04-15T13:16:39.610Z,14.60
2023-04-15T13:19:08.044Z,14.50
2023-04-15T13:21:36.524Z,14.50
2023-04-15T13:24:07.080Z,14.50
2023-04-15T13:26:35.257Z,14.50
2023-04-15T13:29:03.086Z,14.60
2023-04-15T13:31:32.561Z,14.60
2023-04-15T13:34:00.531Z,14.70
2023-04-15T13:36:28.387Z,14.60
2023-04-15T13:38:56.947Z,14.70
2023-04-15T13:41:24.772Z,14.70
2023-04-15T13:43:52.587Z,14.60
2023-04-15T13:46:20.490Z,14.50
2023-04-15T13:48:49.819Z,14.50
2023-04-15T13:51:17.717Z,14.50
2023-04-15T13:53:45.545Z,14.60
2023-04-15T13:56:13.499Z,14.60
2023-04-15T13:58:41.935Z,14.70
2023-04-15T14:01:09.919Z,14.70
2023-04-15T14:03:37.997Z,14.60
2023-04-15T14:06:07.827Z,14.60
2023-04-15T14:08:35.668Z,14.40
2023-04-15T14:11:03.495Z,14.40
2023-04-15T14:13:31.380Z,14.50
2023-04-15T14:15:59.286Z,14.50
2023-04-15T14:18:27.292Z,14.50
2023-04-15T14:20:55.547Z,14.50
2023-04-15T14:23:25.044Z,14.50
2023-04-15T14:25:52.894Z,14.50
2023-04-15T14:28:20.787Z,14.40
2023-04-15T14:30:48.673Z,14.40
2023-04-15T14:33:16.748Z,14.30
2023-04-15T14:35:44.643Z,14.30
2023-04-15T14:38:13.664Z,14.10
2023-04-15T14:40:43.476Z,14.10
2023-04-15T14:43:11.339Z,14.00
2023-04-15T14:45:42.159Z,13.90
2023-04-15T14:48:12.758Z,13.80
2023-04-15T14:50:41.007Z,13.50
2023-04-15T14:53:08.833Z,13.20
2023-04-15T14:55:36.718Z,13.00
2023-04-15T14:58:06.035Z,12.80
2023-04-15T15:00:33.906Z,12.80
2023-04-15T15:03:01.934Z,12.60
2023-04-15T15:05:30.139Z,12.50
2023-04-15T15:07:58.475Z,12.40
2023-04-15T15:10:32.749Z,12.40
2023-04-15T15:13:15.898Z,12.40
2023-04-15T15:15:44.034Z,12.40
2023-04-15T15:18:12.305Z,12.50
2023-04-15T15:20:40.167Z,12.50
2023-04-15T15:23:08.004Z,12.40
2023-04-15T15:25:35.937Z,12.40
2023-04-15T15:28:03.929Z,12.30
2023-04-15T15:30:33.141Z,12.20
2023-04-15T15:33:01.031Z,12.20
2023-04-15T15:35:28.874Z,12.10
2023-04-15T15:37:56.696Z,12.00
2023-04-15T15:40:25.276Z,11.90
2023-04-15T15:42:53.770Z,11.80
2023-04-15T15:45:21.625Z,11.70
2023-04-15T15:47:50.911Z,11.60
2023-04-15T15:50:19.035Z,11.50
2023-04-15T15:52:46.851Z,11.50
2023-04-15T15:55:14.802Z,11.50
2023-04-15T15:57:42.708Z,11.40
2023-04-15T16:00:12.762Z,11.30
2023-04-15T16:05:13.521Z,11.10
2023-04-15T16:07:41.359Z,11.10
2023-04-15T16:10:10.250Z,11.10
2023-04-15T16:12:38.136Z,11.00
2023-04-15T16:15:07.045Z,11.00
2023-04-15T16:17:35.059Z,11.00
2023-04-15T16:20:05.449Z,11.00
2023-04-15T16:22:35.972Z,11.00
2023-04-15T16:25:04.139Z,11.00
2023-04-15T16:27:32.235Z,11.00
2023-04-15T16:30:00.660Z,10.90
2023-04-15T16:32:28.599Z,10.90
2023-04-15T16:34:56.836Z,10.80
2023-04-15T16:37:24.771Z,10.90
2023-04-15T16:39:54.203Z,10.80
2023-04-15T16:42:22.040Z,10.80
2023-04-15T16:44:49.876Z,10.70
2023-04-15T16:47:17.751Z,10.70
2023-04-15T16:49:45.572Z,10.60
2023-04-15T16:52:13.403Z,10.50
2023-04-15T16:54:41.612Z,10.40
2023-04-15T16:57:10.995Z,10.40
2023-04-15T16:59:39.185Z,10.30
2023-04-15T17:02:07.822Z,10.30
2023-04-15T17:04:35.929Z,10.20
2023-04-15T17:07:04.027Z,10.20
2023-04-15T17:09:32.756Z,10.20
2023-04-15T17:12:00.936Z,10.20
2023-04-15T17:14:30.619Z,10.20
2023-04-15T17:16:58.661Z,10.20
2023-04-15T17:19:27.535Z,10.10
2023-04-15T17:21:55.418Z,10.10
2023-04-15T17:24:23.359Z,10.10
2023-04-15T17:26:51.218Z,10.10
2023-04-15T17:29:19.053Z,10.00
2023-04-15T17:31:48.295Z,10.00
2023-04-15T17:34:16.369Z,10.00
2023-04-15T17:36:44.544Z,9.90
2023-04-15T17:39:14.025Z,9.90
2023-04-15T17:41:41.974Z,9.90
2023-04-15T17:44:09.840Z,9.80
2023-04-15T17:46:37.887Z,9.80
2023-04-15T17:49:07.541Z,9.80
2023-04-15T17:51:35.422Z,9.80
2023-04-15T17:54:06.371Z,9.80
2023-04-15T17:56:34.985Z,9.70
2023-04-15T17:59:03.454Z,9.70
2023-04-15T18:01:34.266Z,9.70
2023-04-15T18:04:02.457Z,9.70
2023-04-15T18:06:32.088Z,9.70
2023-04-15T18:09:00.017Z,9.70
2023-04-15T18:11:27.833Z,9.70
2023-04-15T18:13:55.625Z,9.60
2023-04-15T18:16:23.785Z,9.60
2023-04-15T18:18:52.253Z,9.60
2023-04-15T18:21:20.252Z,9.60
2023-04-15T18:23:49.888Z,9.60
2023-04-15T18:26:17.721Z,9.60
2023-04-15T18:28:45.735Z,9.60
2023-04-15T18:31:13.654Z,9.50
2023-04-15T18:33:41.635Z,9.50
2023-04-15T18:36:10.653Z,9.50
2023-04-15T18:38:38.661Z,9.50
2023-04-15T18:41:10.096Z,9.40
2023-04-15T18:43:38.572Z,9.40
2023-04-15T18:46:10.044Z,9.40
2023-04-15T18:48:38.254Z,9.40
2023-04-15T18:51:06.169Z,9.40
2023-04-15T18:53:34.121Z,9.40
2023-04-15T18:56:05.554Z,9.40
2023-04-15T18:59:08.863Z,9.30
2023-04-15T19:01:27.077Z,9.30
2023-04-15T19:03:55.216Z,9.30
2023-04-15T19:06:27.260Z,9.30
2023-04-15T19:08:55.375Z,9.30
2023-04-15T19:11:23.239Z,9.30
2023-04-15T19:13:53.127Z,9.30
2023-04-15T19:16:21.141Z,9.30
2023-04-15T19:18:49.210Z,9.40
2023-04-15T19:21:17.273Z,9.30
2023-04-15T19:23:45.262Z,9.30
2023-04-15T19:26:13.227Z,9.30
2023-04-15T19:28:41.120Z,9.30
2023-04-15T19:31:10.384Z,9.30
2023-04-15T19:33:38.280Z,9.30
2023-04-15T19:36:07.875Z,9.30
2023-04-15T19:38:37.317Z,9.30
2023-04-15T19:41:05.484Z,9.30
2023-04-15T19:43:33.895Z,9.30
2023-04-15T19:46:01.905Z,9.30
2023-04-15T19:48:31.221Z,9.30
2023-04-15T19:50:59.778Z,9.20
2023-04-15T19:53:27.764Z,9.20
2023-04-15T19:55:55.853Z,9.20
2023-04-15T19:58:23.690Z,9.20
2023-04-15T20:00:51.568Z,9.20
2023-04-15T20:03:20.401Z,9.20
2023-04-15T20:05:49.722Z,9.20
2023-04-15T20:08:18.086Z,9.20
2023-04-15T20:10:46.015Z,9.20
2023-04-15T20:13:13.868Z,9.20
2023-04-15T20:15:41.821Z,9.20
2023-04-15T20:18:09.780Z,9.20
2023-04-15T20:20:40.073Z,9.10
2023-04-15T20:23:09.541Z,9.10
2023-04-15T20:25:37.370Z,9.10
2023-04-15T20:28:05.308Z,9.10
2023-04-15T20:30:34.784Z,9.10
2023-04-15T20:33:02.675Z,9.10
2023-04-15T20:35:31.015Z,9.10
2023-04-15T20:37:59.725Z,9.10
2023-04-15T20:40:28.947Z,9.10
2023-04-15T20:42:57.028Z,9.10
2023-04-15T20:45:24.817Z,9.10
2023-04-15T20:47:54.659Z,9.20
2023-04-15T20:50:22.617Z,9.20
2023-04-15T20:52:50.489Z,9.20
2023-04-15T20:55:18.405Z,9.20
2023-04-15T20:57:48.407Z,9.20
2023-04-15T21:00:16.766Z,9.20
2023-04-15T21:02:44.719Z,9.30
2023-04-15T21:05:12.737Z,9.30
2023-04-15T21:07:40.992Z,9.30
2023-04-15T21:10:09.376Z,9.30
2023-04-15T21:12:37.703Z,9.30
2023-04-15T21:15:07.952Z,9.30
2023-04-15T21:17:36.123Z,9.30
2023-04-15T21:20:04.320Z,9.30
2023-04-15T21:22:32.189Z,9.30
2023-04-15T21:25:00.064Z,9.30
2023-04-15T21:27:27.925Z,9.30
2023-04-15T21:29:55.829Z,9.40
2023-04-15T21:32:25.044Z,9.40
2023-04-15T21:34:52.904Z,9.40
2023-04-15T21:37:20.889Z,9.40
2023-04-15T21:39:48.760Z,9.40
2023-04-15T21:42:16.700Z,9.40
2023-04-15T21:44:44.526Z,9.40
2023-04-15T21:47:12.705Z,9.40
2023-04-15T21:49:42.209Z,9.40
2023-04-15T21:52:11.312Z,9.40
2023-04-15T21:54:39.768Z,9.40
2023-04-15T21:57:07.554Z,9.40
2023-04-15T21:59:35.411Z,9.40
2023-04-15T22:02:03.319Z,9.40
2023-04-15T22:04:31.233Z,9.40
2023-04-15T22:07:02.266Z,9.40
2023-04-15T22:09:30.849Z,9.40
2023-04-15T22:11:59.571Z,9.40
2023-04-15T22:14:28.282Z,9.40
2023-04-15T22:16:56.766Z,9.40
2023-04-15T22:19:25.854Z,9.40
2023-04-15T22:21:53.722Z,9.40
2023-04-15T22:24:38.888Z,9.50
2023-04-15T22:27:08.999Z,9.50
2023-04-15T22:29:36.840Z,9.40
2023-04-15T22:32:04.745Z,9.50
2023-04-15T22:34:32.627Z,9.50
2023-04-15T22:37:00.521Z,9.40
2023-04-15T22:39:29.686Z,9.50
2023-04-15T22:41:57.737Z,9.40
2023-04-15T22:44:25.722Z,9.40
2023-04-15T22:46:53.555Z,9.40
2023-04-15T22:49:21.353Z,9.40
2023-04-15T22:51:49.179Z,9.40
2023-04-15T22:54:17.001Z,9.40
2023-04-15T22:56:46.209Z,9.40
2023-04-15T22:59:14.014Z,9.40
2023-04-15T23:01:41.928Z,9.40
2023-04-15T23:04:26.178Z,9.40
2023-04-15T23:06:54.842Z,9.40
2023-04-15T23:09:22.746Z,9.40
2023-04-15T23:11:52.074Z,9.40
2023-04-15T23:14:19.950Z,9.40
2023-04-15T23:16:47.837Z,9.40
2023-04-15T23:19:15.698Z,9.40
2023-04-15T23:21:43.584Z,9.30
2023-04-15T23:24:12.343Z,9.40
2023-04-15T23:26:40.739Z,9.40
2023-04-15T23:29:10.134Z,9.30
2023-04-15T23:31:38.291Z,9.40
2023-04-15T23:34:06.392Z,9.30
2023-04-15T23:36:34.260Z,9.30
2023-04-15T23:39:02.143Z,9.30
2023-04-15T23:41:30.012Z,9.30
2023-04-15T23:43:57.832Z,9.30
2023-04-15T23:46:27.427Z,9.30
2023-04-15T23:48:55.355Z,9.30
2023-04-15T23:51:23.265Z,9.30
2023-04-15T23:53:52.373Z,9.30
2023-04-15T23:56:20.772Z,9.30
2023-04-15T23:58:49.104Z,9.30
